Mattoon, Illinois
Current Conditions -  °F | °C
As of 10:53 PM on Friday 24 Oct 2014 (Local Time) from KMTO Reporting Station
Overcast Overcast  
Wind Chill: 59°   Ceiling: 4300
Heat Index: 59°   Visibility: 10mi
Dew Point: 52°   Wind: 8mph
Humidity: 78%   Direction: 200°SSW
Pressure: 30.01"   Gusts: NA
Location:  39.48°N, 88.37°W
Report Text: KMTO 250353Z AUTO 20007KT 10SM OVC043 15/11 A3001 RMK AO2 SLP159 T01500111
Loading
Personal Weather Stations






























Interactive Weather Map
Tropical Storm Tracking
New forecast layout! Learn more

10-Day Weather Forecast

Advertisements
Track Severe Weather on mobile